Forside
METAR-TAF:

METAR-TAF

Lufthavne :

Chicago Executive Airport

Wheeling / Prospect Heights, Illinois, USA

Breddekreds: 42-07-15N, længdekreds: 087-54-17W, højde: 197 m

Aktuelle vejr

Denne rapport blev lavet for 19 minutter siden, kl. 00:52 UTC
Vind 6 kt fra vestsydvest
Temperatur -7°C
Fugtighed 48%
Tryk 1026 hPa
Sigt: 16.1 km
skyfri

METAR: KPWK 110052Z 24006KT 10SM CLR M07/M16 A3029 RMK AO2 SLP269 T10671156

Tid: 19:11 (01:11 UTC)


TAF: fraværende

Vejrobservationer og prognoser fra mere end 4000 lufthavne (METAR og TAF).

De gule og røde prikker repræsenterer de meteorologiske stationer.

Flyt musen over at se navnet på stationen.

Så klik over at se vejr observationer og prognoser.

At skifte det kort: Klik på de grønne knapper med et sort kors for at zoome ind; på den grønne knap med en bindestreg for at zoome ud; eller på de grønne pile for tilstødende kort.


METAR-TAF: